sensor_id;sensor_type;location;lat;lon;timestamp;temperature;humidity
38265;DHT22;24062;47.480;8.768;2023-02-15T00:01:42;1.20;68.60
38265;DHT22;24062;47.480;8.768;2023-02-15T00:04:11;1.20;69.20
38265;DHT22;24062;47.480;8.768;2023-02-15T00:06:39;1.20;69.50
38265;DHT22;24062;47.480;8.768;2023-02-15T00:09:06;1.30;69.60
38265;DHT22;24062;47.480;8.768;2023-02-15T00:11:33;1.30;69.10
38265;DHT22;24062;47.480;8.768;2023-02-15T00:14:07;1.20;69.10
38265;DHT22;24062;47.480;8.768;2023-02-15T00:16:35;1.10;68.70
38265;DHT22;24062;47.480;8.768;2023-02-15T00:19:02;0.90;68.60
38265;DHT22;24062;47.480;8.768;2023-02-15T00:21:30;0.80;69.20
38265;DHT22;24062;47.480;8.768;2023-02-15T00:23:58;0.70;68.70
38265;DHT22;24062;47.480;8.768;2023-02-15T00:26:25;0.40;68.60
38265;DHT22;24062;47.480;8.768;2023-02-15T00:28:53;0.10;68.90
38265;DHT22;24062;47.480;8.768;2023-02-15T00:31:20;0.10;70.30
38265;DHT22;24062;47.480;8.768;2023-02-15T00:33:48;0.20;70.60
38265;DHT22;24062;47.480;8.768;2023-02-15T00:36:15;0.30;70.30
38265;DHT22;24062;47.480;8.768;2023-02-15T00:38:42;0.10;69.20
38265;DHT22;24062;47.480;8.768;2023-02-15T00:41:10;0.10;70.10
38265;DHT22;24062;47.480;8.768;2023-02-15T00:43:37;-0.10;69.50
38265;DHT22;24062;47.480;8.768;2023-02-15T00:46:04;-0.20;70.00
38265;DHT22;24062;47.480;8.768;2023-02-15T00:48:32;-0.30;70.40
38265;DHT22;24062;47.480;8.768;2023-02-15T00:51:00;-0.20;71.80
38265;DHT22;24062;47.480;8.768;2023-02-15T00:53:28;0.00;71.90
38265;DHT22;24062;47.480;8.768;2023-02-15T00:55:56;0.10;71.80
38265;DHT22;24062;47.480;8.768;2023-02-15T00:58:23;0.20;71.30
38265;DHT22;24062;47.480;8.768;2023-02-15T01:00:50;0.20;71.50
38265;DHT22;24062;47.480;8.768;2023-02-15T01:03:19;0.30;71.70
38265;DHT22;24062;47.480;8.768;2023-02-15T01:05:47;0.30;71.80
38265;DHT22;24062;47.480;8.768;2023-02-15T01:08:17;0.40;72.10
38265;DHT22;24062;47.480;8.768;2023-02-15T01:10:44;0.50;71.90
38265;DHT22;24062;47.480;8.768;2023-02-15T01:13:13;0.60;71.40
38265;DHT22;24062;47.480;8.768;2023-02-15T01:15:41;0.60;71.30
38265;DHT22;24062;47.480;8.768;2023-02-15T01:18:08;0.70;71.40
38265;DHT22;24062;47.480;8.768;2023-02-15T01:20:37;0.70;70.90
38265;DHT22;24062;47.480;8.768;2023-02-15T01:23:07;0.30;69.80
38265;DHT22;24062;47.480;8.768;2023-02-15T01:25:36;0.20;70.70
38265;DHT22;24062;47.480;8.768;2023-02-15T01:28:03;0.00;70.10
38265;DHT22;24062;47.480;8.768;2023-02-15T01:30:31;-0.20;70.70
38265;DHT22;24062;47.480;8.768;2023-02-15T01:32:58;-0.40;70.40
38265;DHT22;24062;47.480;8.768;2023-02-15T01:35:26;-0.60;70.50
38265;DHT22;24062;47.480;8.768;2023-02-15T01:37:54;-0.70;71.30
38265;DHT22;24062;47.480;8.768;2023-02-15T01:40:21;-0.50;71.80
38265;DHT22;24062;47.480;8.768;2023-02-15T01:42:52;-0.60;71.70
38265;DHT22;24062;47.480;8.768;2023-02-15T01:45:22;-0.50;71.60
38265;DHT22;24062;47.480;8.768;2023-02-15T01:47:53;-0.60;71.80
38265;DHT22;24062;47.480;8.768;2023-02-15T01:50:25;-0.40;72.40
38265;DHT22;24062;47.480;8.768;2023-02-15T01:52:57;-0.30;72.30
38265;DHT22;24062;47.480;8.768;2023-02-15T01:55:28;-0.20;72.30
38265;DHT22;24062;47.480;8.768;2023-02-15T01:57:58;-0.20;72.20
38265;DHT22;24062;47.480;8.768;2023-02-15T02:00:26;-0.20;72.00
38265;DHT22;24062;47.480;8.768;2023-02-15T02:02:55;-0.10;72.00
38265;DHT22;24062;47.480;8.768;2023-02-15T02:05:24;-0.10;72.20
38265;DHT22;24062;47.480;8.768;2023-02-15T02:07:53;-0.10;72.30
38265;DHT22;24062;47.480;8.768;2023-02-15T02:10:23;-0.10;72.20
38265;DHT22;24062;47.480;8.768;2023-02-15T02:12:52;-0.20;72.40
38265;DHT22;24062;47.480;8.768;2023-02-15T02:15:27;-0.10;72.70
38265;DHT22;24062;47.480;8.768;2023-02-15T02:18:04;0.00;72.60
38265;DHT22;24062;47.480;8.768;2023-02-15T02:21:13;0.00;72.40
38265;DHT22;24062;47.480;8.768;2023-02-15T02:24:06;-0.10;72.20
38265;DHT22;24062;47.480;8.768;2023-02-15T02:26:58;-0.10;72.80
38265;DHT22;24062;47.480;8.768;2023-02-15T02:30:09;-0.20;73.00
38265;DHT22;24062;47.480;8.768;2023-02-15T02:35:38;-0.10;72.80
38265;DHT22;24062;47.480;8.768;2023-02-15T02:38:15;-0.20;72.90
38265;DHT22;24062;47.480;8.768;2023-02-15T02:40:52;-0.10;73.30
38265;DHT22;24062;47.480;8.768;2023-02-15T02:43:27;0.00;73.50
38265;DHT22;24062;47.480;8.768;2023-02-15T02:45:59;0.00;72.80
38265;DHT22;24062;47.480;8.768;2023-02-15T02:48:32;-0.10;72.70
38265;DHT22;24062;47.480;8.768;2023-02-15T02:50:59;-0.20;72.40
38265;DHT22;24062;47.480;8.768;2023-02-15T02:53:27;-0.20;72.00
38265;DHT22;24062;47.480;8.768;2023-02-15T02:55:59;-0.30;72.60
38265;DHT22;24062;47.480;8.768;2023-02-15T02:58:33;-0.30;72.80
38265;DHT22;24062;47.480;8.768;2023-02-15T03:01:05;-0.50;72.70
38265;DHT22;24062;47.480;8.768;2023-02-15T03:03:37;-0.60;72.70
38265;DHT22;24062;47.480;8.768;2023-02-15T03:06:10;-0.60;73.40
38265;DHT22;24062;47.480;8.768;2023-02-15T03:08:43;-0.70;73.80
38265;DHT22;24062;47.480;8.768;2023-02-15T03:11:12;-0.60;74.00
38265;DHT22;24062;47.480;8.768;2023-02-15T03:13:39;-0.60;73.80
38265;DHT22;24062;47.480;8.768;2023-02-15T03:16:09;-0.60;74.00
38265;DHT22;24062;47.480;8.768;2023-02-15T03:19:00;-0.60;74.30
38265;DHT22;24062;47.480;8.768;2023-02-15T03:21:34;-0.50;74.40
38265;DHT22;24062;47.480;8.768;2023-02-15T03:24:07;-0.50;74.30
38265;DHT22;24062;47.480;8.768;2023-02-15T03:26:36;-0.60;73.90
38265;DHT22;24062;47.480;8.768;2023-02-15T03:29:06;-0.50;74.50
38265;DHT22;24062;47.480;8.768;2023-02-15T03:31:40;-0.40;74.90
38265;DHT22;24062;47.480;8.768;2023-02-15T03:34:11;-0.30;74.80
38265;DHT22;24062;47.480;8.768;2023-02-15T03:36:43;-0.30;74.40
38265;DHT22;24062;47.480;8.768;2023-02-15T03:39:18;-0.30;73.50
38265;DHT22;24062;47.480;8.768;2023-02-15T03:41:54;-0.30;74.40
38265;DHT22;24062;47.480;8.768;2023-02-15T03:44:27;-0.30;74.60
38265;DHT22;24062;47.480;8.768;2023-02-15T03:47:00;-0.10;74.80
38265;DHT22;24062;47.480;8.768;2023-02-15T03:49:38;0.00;74.10
38265;DHT22;24062;47.480;8.768;2023-02-15T03:52:07;0.00;74.00
38265;DHT22;24062;47.480;8.768;2023-02-15T03:54:35;0.00;73.60
38265;DHT22;24062;47.480;8.768;2023-02-15T03:57:18;-0.10;73.60
38265;DHT22;24062;47.480;8.768;2023-02-15T04:00:09;-0.10;73.80
38265;DHT22;24062;47.480;8.768;2023-02-15T04:03:09;0.00;74.00
38265;DHT22;24062;47.480;8.768;2023-02-15T04:05:38;-0.10;73.90
38265;DHT22;24062;47.480;8.768;2023-02-15T04:08:05;-0.10;73.60
38265;DHT22;24062;47.480;8.768;2023-02-15T04:10:32;-0.10;73.70
38265;DHT22;24062;47.480;8.768;2023-02-15T04:13:17;-0.10;73.70
38265;DHT22;24062;47.480;8.768;2023-02-15T04:15:44;-0.10;73.70
38265;DHT22;24062;47.480;8.768;2023-02-15T04:18:29;-0.20;73.70
38265;DHT22;24062;47.480;8.768;2023-02-15T04:21:14;-0.20;73.80
38265;DHT22;24062;47.480;8.768;2023-02-15T04:23:59;-0.20;74.60
38265;DHT22;24062;47.480;8.768;2023-02-15T04:26:43;-0.20;73.90
38265;DHT22;24062;47.480;8.768;2023-02-15T04:29:10;-0.20;74.00
38265;DHT22;24062;47.480;8.768;2023-02-15T04:31:37;-0.20;73.90
38265;DHT22;24062;47.480;8.768;2023-02-15T04:34:04;-0.10;73.60
38265;DHT22;24062;47.480;8.768;2023-02-15T04:36:32;-0.20;73.10
38265;DHT22;24062;47.480;8.768;2023-02-15T04:38:59;-0.30;73.20
38265;DHT22;24062;47.480;8.768;2023-02-15T04:41:26;-0.40;73.70
38265;DHT22;24062;47.480;8.768;2023-02-15T04:43:53;-0.40;73.70
38265;DHT22;24062;47.480;8.768;2023-02-15T04:46:20;-0.40;73.70
38265;DHT22;24062;47.480;8.768;2023-02-15T04:48:47;-0.50;73.30
38265;DHT22;24062;47.480;8.768;2023-02-15T04:51:14;-0.60;73.60
38265;DHT22;24062;47.480;8.768;2023-02-15T04:53:42;-0.50;74.40
38265;DHT22;24062;47.480;8.768;2023-02-15T04:56:09;-0.50;74.20
38265;DHT22;24062;47.480;8.768;2023-02-15T05:01:02;-0.60;73.60
38265;DHT22;24062;47.480;8.768;2023-02-15T05:03:29;-0.70;73.70
38265;DHT22;24062;47.480;8.768;2023-02-15T05:05:56;-0.70;74.10
38265;DHT22;24062;47.480;8.768;2023-02-15T05:08:23;-0.70;74.40
38265;DHT22;24062;47.480;8.768;2023-02-15T05:10:51;-0.70;74.40
38265;DHT22;24062;47.480;8.768;2023-02-15T05:13:18;-0.60;74.80
38265;DHT22;24062;47.480;8.768;2023-02-15T05:15:47;-0.70;74.30
38265;DHT22;24062;47.480;8.768;2023-02-15T05:18:15;-0.60;74.80
38265;DHT22;24062;47.480;8.768;2023-02-15T05:20:42;-0.60;74.50
38265;DHT22;24062;47.480;8.768;2023-02-15T05:23:09;-0.80;73.50
38265;DHT22;24062;47.480;8.768;2023-02-15T05:25:36;-0.80;74.40
38265;DHT22;24062;47.480;8.768;2023-02-15T05:28:23;-0.80;75.10
38265;DHT22;24062;47.480;8.768;2023-02-15T05:31:00;-0.70;74.90
38265;DHT22;24062;47.480;8.768;2023-02-15T05:33:28;-0.60;75.00
38265;DHT22;24062;47.480;8.768;2023-02-15T05:35:55;-0.60;74.70
38265;DHT22;24062;47.480;8.768;2023-02-15T05:38:22;-0.60;74.50
38265;DHT22;24062;47.480;8.768;2023-02-15T05:40:50;-0.60;74.30
38265;DHT22;24062;47.480;8.768;2023-02-15T05:43:17;-0.70;73.90
38265;DHT22;24062;47.480;8.768;2023-02-15T05:45:46;-0.80;73.80
38265;DHT22;24062;47.480;8.768;2023-02-15T05:48:14;-0.90;74.40
38265;DHT22;24062;47.480;8.768;2023-02-15T05:50:41;-0.80;75.60
38265;DHT22;24062;47.480;8.768;2023-02-15T05:53:08;-0.80;74.80
38265;DHT22;24062;47.480;8.768;2023-02-15T05:55:37;-0.80;74.40
38265;DHT22;24062;47.480;8.768;2023-02-15T05:58:04;-0.90;74.00
38265;DHT22;24062;47.480;8.768;2023-02-15T06:00:32;-0.80;74.60
38265;DHT22;24062;47.480;8.768;2023-02-15T06:03:00;-0.80;75.00
38265;DHT22;24062;47.480;8.768;2023-02-15T06:05:27;-0.70;74.70
38265;DHT22;24062;47.480;8.768;2023-02-15T06:07:54;-0.70;74.70
38265;DHT22;24062;47.480;8.768;2023-02-15T06:10:21;-0.70;74.30
38265;DHT22;24062;47.480;8.768;2023-02-15T06:12:48;-0.70;74.00
38265;DHT22;24062;47.480;8.768;2023-02-15T06:15:15;-0.70;73.80
38265;DHT22;24062;47.480;8.768;2023-02-15T06:17:42;-0.80;73.70
38265;DHT22;24062;47.480;8.768;2023-02-15T06:20:11;-0.80;73.80
38265;DHT22;24062;47.480;8.768;2023-02-15T06:22:38;-0.80;73.60
38265;DHT22;24062;47.480;8.768;2023-02-15T06:25:06;-0.90;73.20
38265;DHT22;24062;47.480;8.768;2023-02-15T06:27:35;-0.90;73.00
38265;DHT22;24062;47.480;8.768;2023-02-15T06:30:03;-1.00;73.20
38265;DHT22;24062;47.480;8.768;2023-02-15T06:32:31;-1.00;73.70
38265;DHT22;24062;47.480;8.768;2023-02-15T06:34:58;-1.10;73.10
38265;DHT22;24062;47.480;8.768;2023-02-15T06:37:26;-1.10;73.50
38265;DHT22;24062;47.480;8.768;2023-02-15T06:39:53;-1.10;74.30
38265;DHT22;24062;47.480;8.768;2023-02-15T06:42:21;-1.00;74.50
38265;DHT22;24062;47.480;8.768;2023-02-15T06:44:48;-1.00;74.40
38265;DHT22;24062;47.480;8.768;2023-02-15T06:47:15;-0.80;74.60
38265;DHT22;24062;47.480;8.768;2023-02-15T06:49:42;-0.80;74.20
38265;DHT22;24062;47.480;8.768;2023-02-15T06:52:09;-0.80;74.40
38265;DHT22;24062;47.480;8.768;2023-02-15T06:54:37;-0.70;74.70
38265;DHT22;24062;47.480;8.768;2023-02-15T06:57:04;-0.70;74.10
38265;DHT22;24062;47.480;8.768;2023-02-15T06:59:31;-0.70;74.10
38265;DHT22;24062;47.480;8.768;2023-02-15T07:01:58;-0.70;74.70
38265;DHT22;24062;47.480;8.768;2023-02-15T07:04:25;-0.50;75.10
38265;DHT22;24062;47.480;8.768;2023-02-15T07:06:54;-0.40;75.00
38265;DHT22;24062;47.480;8.768;2023-02-15T07:09:21;-0.40;73.80
38265;DHT22;24062;47.480;8.768;2023-02-15T07:11:49;-0.40;73.80
38265;DHT22;24062;47.480;8.768;2023-02-15T07:14:33;-0.50;73.60
38265;DHT22;24062;47.480;8.768;2023-02-15T07:17:00;-0.50;73.60
38265;DHT22;24062;47.480;8.768;2023-02-15T07:19:27;-0.50;74.10
38265;DHT22;24062;47.480;8.768;2023-02-15T07:21:54;-0.50;74.40
38265;DHT22;24062;47.480;8.768;2023-02-15T07:24:21;-0.40;74.20
38265;DHT22;24062;47.480;8.768;2023-02-15T07:26:50;-0.40;74.30
38265;DHT22;24062;47.480;8.768;2023-02-15T07:29:17;-0.40;74.60
38265;DHT22;24062;47.480;8.768;2023-02-15T07:31:44;-0.30;74.50
38265;DHT22;24062;47.480;8.768;2023-02-15T07:34:11;-0.40;73.30
38265;DHT22;24062;47.480;8.768;2023-02-15T07:36:38;-0.50;73.60
38265;DHT22;24062;47.480;8.768;2023-02-15T07:39:05;-0.60;72.70
38265;DHT22;24062;47.480;8.768;2023-02-15T07:41:32;-0.80;72.70
38265;DHT22;24062;47.480;8.768;2023-02-15T07:44:00;-1.00;73.20
38265;DHT22;24062;47.480;8.768;2023-02-15T07:46:27;-0.90;74.30
38265;DHT22;24062;47.480;8.768;2023-02-15T07:48:56;-0.80;75.10
38265;DHT22;24062;47.480;8.768;2023-02-15T07:51:22;-0.60;75.20
38265;DHT22;24062;47.480;8.768;2023-02-15T07:53:49;-0.40;75.00
38265;DHT22;24062;47.480;8.768;2023-02-15T07:56:17;-0.20;74.90
38265;DHT22;24062;47.480;8.768;2023-02-15T07:58:44;-0.10;75.00
38265;DHT22;24062;47.480;8.768;2023-02-15T08:01:24;0.10;75.40
38265;DHT22;24062;47.480;8.768;2023-02-15T08:03:52;0.30;75.10
38265;DHT22;24062;47.480;8.768;2023-02-15T08:06:19;0.30;74.70
38265;DHT22;24062;47.480;8.768;2023-02-15T08:08:46;0.50;74.70
38265;DHT22;24062;47.480;8.768;2023-02-15T08:11:18;0.70;75.30
38265;DHT22;24062;47.480;8.768;2023-02-15T08:13:53;0.80;75.40
38265;DHT22;24062;47.480;8.768;2023-02-15T08:16:23;0.80;74.60
38265;DHT22;24062;47.480;8.768;2023-02-15T08:18:51;0.90;75.00
38265;DHT22;24062;47.480;8.768;2023-02-15T08:21:18;0.90;75.20
38265;DHT22;24062;47.480;8.768;2023-02-15T08:23:46;0.90;74.00
38265;DHT22;24062;47.480;8.768;2023-02-15T08:26:13;0.80;73.80
38265;DHT22;24062;47.480;8.768;2023-02-15T08:28:41;0.70;73.40
38265;DHT22;24062;47.480;8.768;2023-02-15T08:31:10;0.60;72.90
38265;DHT22;24062;47.480;8.768;2023-02-15T08:33:40;0.70;74.30
38265;DHT22;24062;47.480;8.768;2023-02-15T08:36:09;0.90;75.10
38265;DHT22;24062;47.480;8.768;2023-02-15T08:38:37;1.20;75.60
38265;DHT22;24062;47.480;8.768;2023-02-15T08:41:12;1.50;75.10
38265;DHT22;24062;47.480;8.768;2023-02-15T08:43:39;1.60;74.40
38265;DHT22;24062;47.480;8.768;2023-02-15T08:46:07;1.70;74.10
38265;DHT22;24062;47.480;8.768;2023-02-15T08:48:34;1.80;72.90
38265;DHT22;24062;47.480;8.768;2023-02-15T08:51:06;1.80;73.00
38265;DHT22;24062;47.480;8.768;2023-02-15T08:53:33;1.90;74.60
38265;DHT22;24062;47.480;8.768;2023-02-15T08:56:00;2.10;73.60
38265;DHT22;24062;47.480;8.768;2023-02-15T08:58:28;2.20;74.80
38265;DHT22;24062;47.480;8.768;2023-02-15T09:00:57;2.40;73.60
38265;DHT22;24062;47.480;8.768;2023-02-15T09:03:24;2.30;71.80
38265;DHT22;24062;47.480;8.768;2023-02-15T09:05:57;2.20;72.10
38265;DHT22;24062;47.480;8.768;2023-02-15T09:08:26;2.20;72.50
38265;DHT22;24062;47.480;8.768;2023-02-15T09:10:54;2.00;72.00
38265;DHT22;24062;47.480;8.768;2023-02-15T09:13:21;1.90;71.90
38265;DHT22;24062;47.480;8.768;2023-02-15T09:15:48;1.70;72.00
38265;DHT22;24062;47.480;8.768;2023-02-15T09:18:15;1.80;72.80
38265;DHT22;24062;47.480;8.768;2023-02-15T09:20:43;1.80;72.40
38265;DHT22;24062;47.480;8.768;2023-02-15T09:23:10;1.80;73.40
38265;DHT22;24062;47.480;8.768;2023-02-15T09:25:39;1.90;73.10
38265;DHT22;24062;47.480;8.768;2023-02-15T09:28:06;1.90;72.20
38265;DHT22;24062;47.480;8.768;2023-02-15T09:30:33;2.00;73.40
38265;DHT22;24062;47.480;8.768;2023-02-15T09:33:00;2.10;72.90
38265;DHT22;24062;47.480;8.768;2023-02-15T09:35:27;2.10;72.80
38265;DHT22;24062;47.480;8.768;2023-02-15T09:37:54;2.20;73.30
38265;DHT22;24062;47.480;8.768;2023-02-15T09:40:22;2.40;73.70
38265;DHT22;24062;47.480;8.768;2023-02-15T09:46:03;2.70;73.40
38265;DHT22;24062;47.480;8.768;2023-02-15T09:48:42;2.70;71.60
38265;DHT22;24062;47.480;8.768;2023-02-15T09:51:41;2.50;72.00
38265;DHT22;24062;47.480;8.768;2023-02-15T09:54:26;2.60;72.10
38265;DHT22;24062;47.480;8.768;2023-02-15T09:56:58;2.60;72.20
38265;DHT22;24062;47.480;8.768;2023-02-15T09:59:34;2.70;72.10
38265;DHT22;24062;47.480;8.768;2023-02-15T10:02:15;2.70;72.30
38265;DHT22;24062;47.480;8.768;2023-02-15T10:04:58;2.80;71.90
38265;DHT22;24062;47.480;8.768;2023-02-15T10:07:42;2.80;71.90
38265;DHT22;24062;47.480;8.768;2023-02-15T10:10:19;2.80;72.30
38265;DHT22;24062;47.480;8.768;2023-02-15T10:13:02;3.00;73.40
38265;DHT22;24062;47.480;8.768;2023-02-15T10:15:39;3.20;73.10
38265;DHT22;24062;47.480;8.768;2023-02-15T10:18:23;3.30;71.50
38265;DHT22;24062;47.480;8.768;2023-02-15T10:21:02;3.20;71.10
38265;DHT22;24062;47.480;8.768;2023-02-15T10:26:36;3.60;72.70
38265;DHT22;24062;47.480;8.768;2023-02-15T10:29:09;3.70;71.80
38265;DHT22;24062;47.480;8.768;2023-02-15T10:31:47;3.90;71.80
38265;DHT22;24062;47.480;8.768;2023-02-15T10:34:17;3.80;70.50
38265;DHT22;24062;47.480;8.768;2023-02-15T10:37:13;3.70;70.60
38265;DHT22;24062;47.480;8.768;2023-02-15T10:39:48;3.80;71.20
38265;DHT22;24062;47.480;8.768;2023-02-15T10:42:24;4.00;71.10
38265;DHT22;24062;47.480;8.768;2023-02-15T10:45:11;4.00;71.00
38265;DHT22;24062;47.480;8.768;2023-02-15T10:48:00;4.10;71.70
38265;DHT22;24062;47.480;8.768;2023-02-15T10:50:41;4.40;71.80
38265;DHT22;24062;47.480;8.768;2023-02-15T10:53:19;4.60;72.50
38265;DHT22;24062;47.480;8.768;2023-02-15T10:55:55;4.80;70.50
38265;DHT22;24062;47.480;8.768;2023-02-15T10:58:33;4.80;70.30
38265;DHT22;24062;47.480;8.768;2023-02-15T11:01:07;4.90;70.70
38265;DHT22;24062;47.480;8.768;2023-02-15T11:03:56;5.10;71.10
38265;DHT22;24062;47.480;8.768;2023-02-15T11:06:29;5.30;71.00
38265;DHT22;24062;47.480;8.768;2023-02-15T11:09:01;5.60;71.50
38265;DHT22;24062;47.480;8.768;2023-02-15T11:11:31;5.80;71.30
38265;DHT22;24062;47.480;8.768;2023-02-15T11:14:02;5.90;70.20
38265;DHT22;24062;47.480;8.768;2023-02-15T11:16:32;5.90;69.20
38265;DHT22;24062;47.480;8.768;2023-02-15T11:19:08;6.00;69.20
38265;DHT22;24062;47.480;8.768;2023-02-15T11:21:38;6.10;69.70
38265;DHT22;24062;47.480;8.768;2023-02-15T11:24:10;6.30;70.40
38265;DHT22;24062;47.480;8.768;2023-02-15T11:26:42;6.40;68.70
38265;DHT22;24062;47.480;8.768;2023-02-15T11:29:13;6.40;68.20
38265;DHT22;24062;47.480;8.768;2023-02-15T11:31:43;6.50;68.20
38265;DHT22;24062;47.480;8.768;2023-02-15T11:34:18;6.70;68.60
38265;DHT22;24062;47.480;8.768;2023-02-15T11:36:49;6.70;68.10
38265;DHT22;24062;47.480;8.768;2023-02-15T11:39:18;6.90;68.30
38265;DHT22;24062;47.480;8.768;2023-02-15T11:41:49;7.10;69.10
38265;DHT22;24062;47.480;8.768;2023-02-15T11:44:21;7.40;67.30
38265;DHT22;24062;47.480;8.768;2023-02-15T11:46:49;7.40;67.60
38265;DHT22;24062;47.480;8.768;2023-02-15T11:49:23;7.50;67.10
38265;DHT22;24062;47.480;8.768;2023-02-15T11:51:52;7.60;67.60
38265;DHT22;24062;47.480;8.768;2023-02-15T11:54:21;7.70;66.60
38265;DHT22;24062;47.480;8.768;2023-02-15T11:56:50;7.70;65.70
38265;DHT22;24062;47.480;8.768;2023-02-15T11:59:24;7.60;65.50
38265;DHT22;24062;47.480;8.768;2023-02-15T12:01:54;7.60;66.30
38265;DHT22;24062;47.480;8.768;2023-02-15T12:04:25;7.60;65.40
38265;DHT22;24062;47.480;8.768;2023-02-15T12:06:57;7.70;67.10
38265;DHT22;24062;47.480;8.768;2023-02-15T12:09:31;7.90;65.70
38265;DHT22;24062;47.480;8.768;2023-02-15T12:12:19;8.00;66.50
38265;DHT22;24062;47.480;8.768;2023-02-15T12:14:48;8.40;67.20
38265;DHT22;24062;47.480;8.768;2023-02-15T12:17:16;8.60;65.50
38265;DHT22;24062;47.480;8.768;2023-02-15T12:19:44;8.60;64.40
38265;DHT22;24062;47.480;8.768;2023-02-15T12:22:21;8.60;65.10
38265;DHT22;24062;47.480;8.768;2023-02-15T12:24:51;8.70;64.80
38265;DHT22;24062;47.480;8.768;2023-02-15T12:27:21;8.70;63.70
38265;DHT22;24062;47.480;8.768;2023-02-15T12:29:50;8.70;64.50
38265;DHT22;24062;47.480;8.768;2023-02-15T12:32:21;8.70;63.60
38265;DHT22;24062;47.480;8.768;2023-02-15T12:34:51;8.60;63.90
38265;DHT22;24062;47.480;8.768;2023-02-15T12:37:23;8.70;65.10
38265;DHT22;24062;47.480;8.768;2023-02-15T12:39:55;9.00;64.40
38265;DHT22;24062;47.480;8.768;2023-02-15T12:42:22;9.00;63.30
38265;DHT22;24062;47.480;8.768;2023-02-15T12:44:58;9.00;63.70
38265;DHT22;24062;47.480;8.768;2023-02-15T12:47:26;9.10;62.80
38265;DHT22;24062;47.480;8.768;2023-02-15T12:50:11;9.20;63.50
38265;DHT22;24062;47.480;8.768;2023-02-15T12:52:43;9.40;63.60
38265;DHT22;24062;47.480;8.768;2023-02-15T12:55:18;9.70;63.30
38265;DHT22;24062;47.480;8.768;2023-02-15T12:57:45;9.80;62.20
38265;DHT22;24062;47.480;8.768;2023-02-15T13:00:27;9.90;62.70
38265;DHT22;24062;47.480;8.768;2023-02-15T13:02:57;10.20;61.80
38265;DHT22;24062;47.480;8.768;2023-02-15T13:05:34;10.30;60.60
38265;DHT22;24062;47.480;8.768;2023-02-15T13:08:10;10.50;61.50
38265;DHT22;24062;47.480;8.768;2023-02-15T13:10:41;10.90;60.40
38265;DHT22;24062;47.480;8.768;2023-02-15T13:13:19;11.00;60.20
38265;DHT22;24062;47.480;8.768;2023-02-15T13:15:50;11.20;60.30
38265;DHT22;24062;47.480;8.768;2023-02-15T13:18:28;11.40;58.80
38265;DHT22;24062;47.480;8.768;2023-02-15T13:20:58;11.20;57.10
38265;DHT22;24062;47.480;8.768;2023-02-15T13:23:28;11.10;58.20
38265;DHT22;24062;47.480;8.768;2023-02-15T13:25:57;11.10;58.10
38265;DHT22;24062;47.480;8.768;2023-02-15T13:28:38;11.00;57.80
38265;DHT22;24062;47.480;8.768;2023-02-15T13:31:13;11.10;58.10
38265;DHT22;24062;47.480;8.768;2023-02-15T13:33:43;11.40;58.50
38265;DHT22;24062;47.480;8.768;2023-02-15T13:36:18;11.70;58.40
38265;DHT22;24062;47.480;8.768;2023-02-15T13:38:55;11.80;57.80
38265;DHT22;24062;47.480;8.768;2023-02-15T13:41:30;12.10;58.40
38265;DHT22;24062;47.480;8.768;2023-02-15T13:44:05;12.40;56.80
38265;DHT22;24062;47.480;8.768;2023-02-15T13:47:00;12.40;56.70
38265;DHT22;24062;47.480;8.768;2023-02-15T13:49:41;12.60;57.30
38265;DHT22;24062;47.480;8.768;2023-02-15T13:52:19;12.90;57.30
38265;DHT22;24062;47.480;8.768;2023-02-15T13:55:16;13.10;56.50
38265;DHT22;24062;47.480;8.768;2023-02-15T13:58:18;13.10;55.90
38265;DHT22;24062;47.480;8.768;2023-02-15T14:00:57;13.10;55.60
38265;DHT22;24062;47.480;8.768;2023-02-15T14:06:55;13.50;55.40
38265;DHT22;24062;47.480;8.768;2023-02-15T14:09:40;13.40;55.10
38265;DHT22;24062;47.480;8.768;2023-02-15T14:12:31;13.70;55.90
38265;DHT22;24062;47.480;8.768;2023-02-15T14:15:10;14.10;54.10
38265;DHT22;24062;47.480;8.768;2023-02-15T14:17:49;14.00;55.00
38265;DHT22;24062;47.480;8.768;2023-02-15T14:20:21;14.00;53.70
38265;DHT22;24062;47.480;8.768;2023-02-15T14:22:58;14.00;54.60
38265;DHT22;24062;47.480;8.768;2023-02-15T14:25:34;14.30;55.20
38265;DHT22;24062;47.480;8.768;2023-02-15T14:28:09;15.00;56.00
38265;DHT22;24062;47.480;8.768;2023-02-15T14:30:40;15.70;55.00
38265;DHT22;24062;47.480;8.768;2023-02-15T14:33:14;16.40;55.50
38265;DHT22;24062;47.480;8.768;2023-02-15T14:35:45;17.40;54.90
38265;DHT22;24062;47.480;8.768;2023-02-15T14:38:19;18.20;51.30
38265;DHT22;24062;47.480;8.768;2023-02-15T14:40:53;18.80;51.20
38265;DHT22;24062;47.480;8.768;2023-02-15T14:43:37;19.60;49.30
38265;DHT22;24062;47.480;8.768;2023-02-15T14:46:14;20.30;48.00
38265;DHT22;24062;47.480;8.768;2023-02-15T14:48:45;21.10;47.80
38265;DHT22;24062;47.480;8.768;2023-02-15T14:57:33;23.80;44.20
38265;DHT22;24062;47.480;8.768;2023-02-15T15:00:04;24.50;43.50
38265;DHT22;24062;47.480;8.768;2023-02-15T15:02:48;25.20;43.60
38265;DHT22;24062;47.480;8.768;2023-02-15T15:05:19;26.10;41.50
38265;DHT22;24062;47.480;8.768;2023-02-15T15:07:50;26.20;40.60
38265;DHT22;24062;47.480;8.768;2023-02-15T15:10:38;26.50;40.80
38265;DHT22;24062;47.480;8.768;2023-02-15T15:13:35;27.20;39.60
38265;DHT22;24062;47.480;8.768;2023-02-15T15:16:25;28.00;38.70
38265;DHT22;24062;47.480;8.768;2023-02-15T15:18:54;28.20;38.40
38265;DHT22;24062;47.480;8.768;2023-02-15T15:21:53;28.50;37.60
38265;DHT22;24062;47.480;8.768;2023-02-15T15:24:45;28.40;36.50
38265;DHT22;24062;47.480;8.768;2023-02-15T15:43:34;26.80;34.70
38265;DHT22;24062;47.480;8.768;2023-02-15T15:46:24;23.70;33.80
38265;DHT22;24062;47.480;8.768;2023-02-15T15:49:00;19.90;34.40
38265;DHT22;24062;47.480;8.768;2023-02-15T15:51:31;17.20;36.10
38265;DHT22;24062;47.480;8.768;2023-02-15T15:54:00;15.60;37.50
38265;DHT22;24062;47.480;8.768;2023-02-15T15:56:31;14.60;38.60
38265;DHT22;24062;47.480;8.768;2023-02-15T15:59:02;13.80;39.70
38265;DHT22;24062;47.480;8.768;2023-02-15T16:01:31;13.20;40.50
38265;DHT22;24062;47.480;8.768;2023-02-15T16:04:01;12.70;41.20
38265;DHT22;24062;47.480;8.768;2023-02-15T16:06:33;12.30;41.70
38265;DHT22;24062;47.480;8.768;2023-02-15T16:09:16;11.90;42.30
38265;DHT22;24062;47.480;8.768;2023-02-15T16:11:46;11.60;42.70
38265;DHT22;24062;47.480;8.768;2023-02-15T16:14:17;11.30;42.90
38265;DHT22;24062;47.480;8.768;2023-02-15T16:16:49;11.20;44.00
38265;DHT22;24062;47.480;8.768;2023-02-15T16:19:20;11.00;43.70
38265;DHT22;24062;47.480;8.768;2023-02-15T16:21:49;10.70;44.40
38265;DHT22;24062;47.480;8.768;2023-02-15T16:24:24;10.50;45.10
38265;DHT22;24062;47.480;8.768;2023-02-15T16:27:35;10.10;45.10
38265;DHT22;24062;47.480;8.768;2023-02-15T16:30:23;9.70;45.90
38265;DHT22;24062;47.480;8.768;2023-02-15T16:32:53;9.30;46.50
38265;DHT22;24062;47.480;8.768;2023-02-15T16:35:22;9.20;46.50
38265;DHT22;24062;47.480;8.768;2023-02-15T16:37:49;9.30;47.00
38265;DHT22;24062;47.480;8.768;2023-02-15T16:40:28;9.20;46.40
38265;DHT22;24062;47.480;8.768;2023-02-15T16:43:02;9.10;46.30
38265;DHT22;24062;47.480;8.768;2023-02-15T16:45:32;9.10;46.20
38265;DHT22;24062;47.480;8.768;2023-02-15T16:48:06;9.00;46.20